createdAt,value
2023-04-27T00:01:04.000Z,4.9
2023-04-27T00:02:21.000Z,4.6
2023-04-27T00:03:37.000Z,4.9
2023-04-27T00:04:53.000Z,5.1
2023-04-27T00:06:09.000Z,5
2023-04-27T00:07:24.000Z,4.7
2023-04-27T00:08:39.000Z,4.9
2023-04-27T00:09:54.000Z,4.9
2023-04-27T00:12:26.000Z,4.7
2023-04-27T00:13:42.000Z,4.7
2023-04-27T00:14:58.000Z,5.3
2023-04-27T00:16:14.000Z,4.5
2023-04-27T00:17:30.000Z,4.5
2023-04-27T00:18:46.000Z,5.1
2023-04-27T00:20:03.000Z,5
2023-04-27T00:21:19.000Z,5.3
2023-04-27T00:22:35.000Z,5.2
2023-04-27T00:23:51.000Z,5.1
2023-04-27T00:25:07.000Z,4.8
2023-04-27T00:26:23.000Z,5.1
2023-04-27T00:27:38.000Z,5
2023-04-27T00:28:55.000Z,5.2
2023-04-27T00:30:11.000Z,4.9
2023-04-27T00:31:27.000Z,5.2
2023-04-27T00:32:43.000Z,5
2023-04-27T00:33:59.000Z,5.4
2023-04-27T00:35:15.000Z,5
2023-04-27T00:36:31.000Z,4.9
2023-04-27T00:37:46.000Z,5.3
2023-04-27T00:39:02.000Z,5.2
2023-04-27T00:40:17.000Z,4.7
2023-04-27T00:41:32.000Z,4.6
2023-04-27T00:42:48.000Z,4.8
2023-04-27T00:44:04.000Z,4.8
2023-04-27T00:45:20.000Z,5
2023-04-27T00:46:36.000Z,5.3
2023-04-27T00:47:53.000Z,5.6
2023-04-27T00:49:09.000Z,5.3
2023-04-27T00:50:25.000Z,4.9
2023-04-27T00:51:41.000Z,5.1
2023-04-27T00:52:57.000Z,5
2023-04-27T00:54:13.000Z,4.6
2023-04-27T00:55:29.000Z,4.6
2023-04-27T00:56:45.000Z,4.6
2023-04-27T00:58:01.000Z,4.8
2023-04-27T00:59:17.000Z,4.3
2023-04-27T01:00:33.000Z,4.5
2023-04-27T01:01:49.000Z,4.2
2023-04-27T01:03:05.000Z,4.5
2023-04-27T01:04:21.000Z,5
2023-04-27T01:05:37.000Z,4.3
2023-04-27T01:06:53.000Z,4.6
2023-04-27T01:08:08.000Z,4.2
2023-04-27T01:09:23.000Z,4.6
2023-04-27T01:10:38.000Z,4.8
2023-04-27T01:11:54.000Z,4.8
2023-04-27T01:13:10.000Z,4.5
2023-04-27T01:14:26.000Z,4.9
2023-04-27T01:15:43.000Z,4.9
2023-04-27T01:16:59.000Z,4.5
2023-04-27T01:18:15.000Z,4.4
2023-04-27T01:19:31.000Z,5
2023-04-27T01:20:47.000Z,4.5
2023-04-27T01:22:03.000Z,4.5
2023-04-27T01:23:19.000Z,4.7
2023-04-27T01:24:36.000Z,4.7
2023-04-27T01:25:52.000Z,4.5
2023-04-27T01:27:07.000Z,4.4
2023-04-27T01:28:23.000Z,4.6
2023-04-27T01:29:39.000Z,4.8
2023-04-27T01:30:55.000Z,4.5
2023-04-27T01:32:11.000Z,4.5
2023-04-27T01:33:27.000Z,4.8
2023-04-27T01:34:44.000Z,4
2023-04-27T01:35:59.000Z,4.5
2023-04-27T01:37:14.000Z,4.7
2023-04-27T01:38:30.000Z,4.5
2023-04-27T01:39:46.000Z,5.8
2023-04-27T01:41:02.000Z,4.4
2023-04-27T01:42:18.000Z,4.8
2023-04-27T01:43:35.000Z,4.5
2023-04-27T01:44:51.000Z,4.9
2023-04-27T01:46:07.000Z,4.8
2023-04-27T01:47:23.000Z,4.8
2023-04-27T01:48:39.000Z,5.1
2023-04-27T01:49:55.000Z,4.6
2023-04-27T01:51:11.000Z,4.8
2023-04-27T01:52:27.000Z,5.3
2023-04-27T01:53:43.000Z,4.5
2023-04-27T01:54:59.000Z,4.2
2023-04-27T01:56:15.000Z,4.7
2023-04-27T01:57:31.000Z,5.1
2023-04-27T01:58:47.000Z,4.8
2023-04-27T02:00:03.000Z,4.7
2023-04-27T02:01:19.000Z,4.8
2023-04-27T02:02:35.000Z,4.3
2023-04-27T02:03:50.000Z,4.7
2023-04-27T02:05:06.000Z,4.7
2023-04-27T02:06:22.000Z,4.9
2023-04-27T02:07:38.000Z,5.4
2023-04-27T02:08:54.000Z,5.1
2023-04-27T02:10:10.000Z,5.5
2023-04-27T02:11:27.000Z,4.7
2023-04-27T02:12:43.000Z,4.6
2023-04-27T02:13:59.000Z,4.8
2023-04-27T02:15:15.000Z,5.3
2023-04-27T02:16:31.000Z,4.9
2023-04-27T02:17:47.000Z,5
2023-04-27T02:19:03.000Z,4.9
2023-04-27T02:20:18.000Z,4.7
2023-04-27T02:21:35.000Z,4.8
2023-04-27T02:22:51.000Z,5
2023-04-27T02:24:07.000Z,5
2023-04-27T02:25:23.000Z,4.9
2023-04-27T02:26:39.000Z,4.7
2023-04-27T02:27:55.000Z,4.9
2023-04-27T02:29:10.000Z,5.1
2023-04-27T02:30:26.000Z,4.9
2023-04-27T02:31:41.000Z,4.9
2023-04-27T02:32:56.000Z,5.4
2023-04-27T02:34:11.000Z,5.6
2023-04-27T02:35:26.000Z,5.8
2023-04-27T02:36:42.000Z,6
2023-04-27T02:37:58.000Z,6.3
2023-04-27T02:39:15.000Z,5.8
2023-04-27T02:40:31.000Z,6.1
2023-04-27T02:41:47.000Z,5.6
2023-04-27T02:43:03.000Z,5.6
2023-04-27T02:44:19.000Z,6.1
2023-04-27T02:45:35.000Z,5.5
2023-04-27T02:46:51.000Z,5.9
2023-04-27T02:48:07.000Z,5.5
2023-04-27T02:49:24.000Z,5.1
2023-04-27T02:50:40.000Z,5.8
2023-04-27T02:51:55.000Z,5.2
2023-04-27T02:53:11.000Z,5.2
2023-04-27T02:54:27.000Z,5.1
2023-04-27T02:55:43.000Z,4.8
2023-04-27T02:56:59.000Z,6.3
2023-04-27T02:58:16.000Z,4.4
2023-04-27T02:59:32.000Z,5
2023-04-27T03:00:47.000Z,5.1
2023-04-27T03:02:02.000Z,4.8
2023-04-27T03:03:17.000Z,5.2
2023-04-27T03:04:32.000Z,5.1
2023-04-27T03:05:48.000Z,5.1
2023-04-27T03:07:05.000Z,4.8
2023-04-27T03:08:21.000Z,5.6
2023-04-27T03:09:37.000Z,5
2023-04-27T03:10:53.000Z,5.4
2023-04-27T03:12:09.000Z,5.1
2023-04-27T03:13:25.000Z,5.3
2023-04-27T03:14:41.000Z,5.3
2023-04-27T03:15:57.000Z,6
2023-04-27T03:17:14.000Z,5.3
2023-04-27T03:18:30.000Z,5
2023-04-27T03:19:46.000Z,5.6
2023-04-27T03:21:01.000Z,5.4
2023-04-27T03:22:17.000Z,5.6
2023-04-27T03:23:33.000Z,5
2023-04-27T03:24:49.000Z,5.5
2023-04-27T03:26:06.000Z,5.9
2023-04-27T03:27:22.000Z,5.2
2023-04-27T03:28:38.000Z,5.1
2023-04-27T03:29:53.000Z,5.3
2023-04-27T03:31:08.000Z,5.7
2023-04-27T03:32:24.000Z,5.6
2023-04-27T03:33:39.000Z,5.4
2023-04-27T03:34:55.000Z,5.8
2023-04-27T03:36:11.000Z,5.3
2023-04-27T03:37:27.000Z,5.7
2023-04-27T03:38:43.000Z,5.8
2023-04-27T03:39:59.000Z,6
2023-04-27T03:41:15.000Z,5.9
2023-04-27T03:42:31.000Z,5.6
2023-04-27T03:43:48.000Z,5.6
2023-04-27T03:45:04.000Z,5.4
2023-04-27T03:46:20.000Z,5.4
2023-04-27T03:47:36.000Z,6.1
2023-04-27T03:48:52.000Z,6.4
2023-04-27T03:50:08.000Z,5.8
2023-04-27T03:51:23.000Z,5.6
2023-04-27T03:52:39.000Z,5.8
2023-04-27T03:53:56.000Z,5.5
2023-04-27T03:55:12.000Z,5.9
2023-04-27T03:56:28.000Z,5.9
2023-04-27T03:57:44.000Z,6.3
2023-04-27T03:59:00.000Z,6.1
2023-04-27T04:00:15.000Z,5.7
2023-04-27T04:01:30.000Z,5.9
2023-04-27T04:02:47.000Z,6.4
2023-04-27T04:04:02.000Z,6.1
2023-04-27T04:05:17.000Z,6
2023-04-27T04:06:33.000Z,6.2
2023-04-27T04:07:49.000Z,6.3
2023-04-27T04:09:05.000Z,6.6
2023-04-27T04:10:21.000Z,6.2
2023-04-27T04:11:38.000Z,5.9
2023-04-27T04:12:54.000Z,5.7
2023-04-27T04:15:26.000Z,6.7
2023-04-27T04:16:42.000Z,5.6
2023-04-27T04:17:58.000Z,6.8
2023-04-27T04:19:14.000Z,6.2
2023-04-27T04:20:30.000Z,6.8
2023-04-27T04:21:46.000Z,6
2023-04-27T04:23:02.000Z,6.4
2023-04-27T04:24:18.000Z,5.5
2023-04-27T04:25:34.000Z,5.9
2023-04-27T04:26:50.000Z,5.8
2023-04-27T04:28:06.000Z,5.5
2023-04-27T04:29:22.000Z,5.6
2023-04-27T04:30:39.000Z,5.9
2023-04-27T04:31:54.000Z,5.5
2023-04-27T04:33:09.000Z,6.1
2023-04-27T04:34:25.000Z,5.8
2023-04-27T04:35:40.000Z,5.8
2023-04-27T04:36:55.000Z,6
2023-04-27T04:38:11.000Z,5.6
2023-04-27T04:39:28.000Z,5.5
2023-04-27T04:40:44.000Z,5.6
2023-04-27T04:42:00.000Z,5.8
2023-04-27T04:43:16.000Z,5.7
2023-04-27T04:44:32.000Z,5.5
2023-04-27T04:45:48.000Z,5.9
2023-04-27T04:47:04.000Z,5.7
2023-04-27T04:48:20.000Z,5.6
2023-04-27T04:49:37.000Z,5.7
2023-04-27T04:50:53.000Z,5.9
2023-04-27T04:52:09.000Z,5.9
2023-04-27T04:53:24.000Z,5.8
2023-04-27T04:54:40.000Z,5.8
2023-04-27T04:55:56.000Z,6.7
2023-04-27T04:57:12.000Z,6.9
2023-04-27T04:58:29.000Z,6
2023-04-27T04:59:45.000Z,5.9
2023-04-27T05:01:01.000Z,5.8
2023-04-27T05:02:16.000Z,5.8
2023-04-27T05:03:31.000Z,6.7
2023-04-27T05:04:47.000Z,5.6
2023-04-27T05:06:02.000Z,6.6
2023-04-27T05:07:18.000Z,5.9
2023-04-27T05:08:34.000Z,5.9
2023-04-27T05:09:50.000Z,5.8
2023-04-27T05:11:06.000Z,5.5
2023-04-27T05:12:22.000Z,5.4
2023-04-27T05:13:38.000Z,5.5
2023-04-27T05:16:10.000Z,5.6
2023-04-27T05:17:27.000Z,5.4
2023-04-27T05:18:43.000Z,6.3
2023-04-27T05:19:59.000Z,6.2
2023-04-27T05:21:15.000Z,6.3
2023-04-27T05:22:31.000Z,6.1
2023-04-27T05:23:46.000Z,5.8
2023-04-27T05:25:02.000Z,6.1
2023-04-27T05:26:19.000Z,6.4
2023-04-27T05:27:35.000Z,5.2
2023-04-27T05:28:51.000Z,6.1
2023-04-27T05:30:07.000Z,6
2023-04-27T05:31:23.000Z,5.7
2023-04-27T05:32:39.000Z,5.6
2023-04-27T05:33:54.000Z,5.9
2023-04-27T05:36:25.000Z,6
2023-04-27T05:37:40.000Z,6.3
2023-04-27T05:38:56.000Z,7.9
2023-04-27T05:40:12.000Z,5.5
2023-04-27T05:41:28.000Z,5.8
2023-04-27T05:42:44.000Z,6.1
2023-04-27T05:44:00.000Z,5.8
2023-04-27T05:45:17.000Z,5.7
2023-04-27T05:46:33.000Z,5.8
2023-04-27T05:47:49.000Z,5.9
2023-04-27T05:49:05.000Z,6.4
2023-04-27T05:50:21.000Z,6
2023-04-27T05:51:37.000Z,6.4
2023-04-27T05:52:53.000Z,6.3
2023-04-27T05:55:25.000Z,6.5
2023-04-27T05:56:41.000Z,6.1
2023-04-27T05:57:57.000Z,7.4
2023-04-27T05:59:13.000Z,6
2023-04-27T06:00:29.000Z,6.6
2023-04-27T06:01:45.000Z,6.4
2023-04-27T06:03:01.000Z,6.4
2023-04-27T06:04:17.000Z,6.5
2023-04-27T06:05:32.000Z,6
2023-04-27T06:06:47.000Z,5.9
2023-04-27T06:09:17.000Z,6
2023-04-27T06:10:34.000Z,5.8
2023-04-27T06:11:50.000Z,6
2023-04-27T06:13:07.000Z,5
2023-04-27T06:14:23.000Z,5.2
2023-04-27T06:15:39.000Z,5.1
2023-04-27T06:16:55.000Z,5.3
2023-04-27T06:18:10.000Z,4.6
2023-04-27T06:19:26.000Z,5.3
2023-04-27T06:20:42.000Z,5.2
2023-04-27T06:21:59.000Z,4.7
2023-04-27T06:23:15.000Z,5.5
2023-04-27T06:24:31.000Z,4.8
2023-04-27T06:25:47.000Z,5.1
2023-04-27T06:27:03.000Z,5.1
2023-04-27T06:28:19.000Z,5.2
2023-04-27T06:29:35.000Z,5.1
2023-04-27T06:30:51.000Z,5.3
2023-04-27T06:32:08.000Z,5.3
2023-04-27T06:33:24.000Z,5.1
2023-04-27T06:34:39.000Z,6.3
2023-04-27T06:35:54.000Z,4.8
2023-04-27T06:37:09.000Z,4.7
2023-04-27T06:38:24.000Z,4.8
2023-04-27T06:39:40.000Z,4.7
2023-04-27T06:40:57.000Z,4.3
2023-04-27T06:42:13.000Z,4.6
2023-04-27T06:43:29.000Z,5.4
2023-04-27T06:44:45.000Z,4.7
2023-04-27T06:46:01.000Z,4.7
2023-04-27T06:47:17.000Z,5
2023-04-27T06:48:33.000Z,4.4
2023-04-27T06:49:50.000Z,4.8
2023-04-27T06:51:06.000Z,4.5
2023-04-27T06:52:22.000Z,4.6
2023-04-27T06:53:38.000Z,4.8
2023-04-27T06:54:53.000Z,4.6
2023-04-27T06:56:09.000Z,4.5
2023-04-27T06:57:25.000Z,4.6
2023-04-27T06:58:41.000Z,5.1
2023-04-27T06:59:58.000Z,4.7
2023-04-27T07:02:30.000Z,4.7
2023-04-27T07:03:46.000Z,3.9
2023-04-27T07:05:01.000Z,4.3
2023-04-27T07:06:16.000Z,4.2
2023-04-27T07:07:32.931Z,3.8
2023-04-27T07:08:48.000Z,4.3
2023-04-27T07:10:03.000Z,4.4
2023-04-27T07:11:19.000Z,4.2
2023-04-27T07:12:35.000Z,4.6
2023-04-27T07:13:51.000Z,4.3
2023-04-27T07:15:07.000Z,3.9
2023-04-27T07:16:23.000Z,4.5
2023-04-27T07:17:40.000Z,4.7
2023-04-27T07:18:56.000Z,4.2
2023-04-27T07:20:12.000Z,4.9
2023-04-27T07:21:28.000Z,4.2
2023-04-27T07:22:44.000Z,4.5
2023-04-27T07:24:00.000Z,4.4
2023-04-27T07:25:16.000Z,4.8
2023-04-27T07:26:31.000Z,5.1
2023-04-27T07:27:48.000Z,5.8
2023-04-27T07:29:04.000Z,4.7
2023-04-27T07:30:20.000Z,6.1
2023-04-27T07:31:36.000Z,6
2023-04-27T07:32:52.000Z,4.7
2023-04-27T07:34:08.000Z,4.4
2023-04-27T07:35:23.000Z,4.4
2023-04-27T07:36:39.000Z,4.7
2023-04-27T07:37:54.000Z,4.2
2023-04-27T07:39:09.000Z,5.3
2023-04-27T07:40:25.000Z,4.4
2023-04-27T07:41:41.000Z,3.8
2023-04-27T07:42:57.000Z,4.3
2023-04-27T07:44:13.000Z,3.5
2023-04-27T07:45:30.000Z,3.6
2023-04-27T07:46:46.000Z,3.6
2023-04-27T07:48:02.000Z,3.6
2023-04-27T07:49:18.000Z,3.7
2023-04-27T07:50:34.000Z,3.7
2023-04-27T07:51:50.000Z,4.5
2023-04-27T07:53:06.000Z,3.6
2023-04-27T07:54:22.000Z,5
2023-04-27T07:55:38.000Z,4.4
2023-04-27T07:56:54.000Z,3.8
2023-04-27T07:58:10.000Z,4.1
2023-04-27T07:59:26.000Z,3.5
2023-04-27T08:00:42.000Z,3.6
2023-04-27T08:03:14.000Z,3.4
2023-04-27T08:04:31.000Z,3.4
2023-04-27T08:05:46.000Z,3.5
2023-04-27T08:07:01.000Z,3.1
2023-04-27T08:08:16.000Z,2.9
2023-04-27T08:09:31.000Z,3.4
2023-04-27T08:10:47.000Z,3.4
2023-04-27T08:12:03.000Z,3.5
2023-04-27T08:13:20.000Z,3.7
2023-04-27T08:14:36.000Z,2.6
2023-04-27T08:15:52.000Z,2.8
2023-04-27T08:17:08.000Z,2.6
2023-04-27T08:18:24.000Z,2.9
2023-04-27T08:19:40.000Z,2.9
2023-04-27T08:20:56.000Z,3.7
2023-04-27T08:22:12.000Z,3
2023-04-27T08:23:29.000Z,3.1
2023-04-27T08:26:01.000Z,3.1
2023-04-27T08:27:16.000Z,3
2023-04-27T08:28:32.000Z,3
2023-04-27T08:29:48.000Z,3
2023-04-27T08:31:04.000Z,2.9
2023-04-27T08:32:21.000Z,3
2023-04-27T08:33:37.000Z,3
2023-04-27T08:34:53.000Z,3.5
2023-04-27T08:36:08.000Z,3
2023-04-27T08:37:23.000Z,3
2023-04-27T08:38:38.000Z,2.7
2023-04-27T08:39:53.000Z,2.9
2023-04-27T08:41:10.000Z,3.1
2023-04-27T08:42:26.000Z,3.2
2023-04-27T08:43:42.000Z,3.5
2023-04-27T08:44:58.000Z,2.9
2023-04-27T08:46:14.000Z,3
2023-04-27T08:47:30.000Z,2.8
2023-04-27T08:48:46.000Z,3.2
2023-04-27T08:50:02.000Z,3.3
2023-04-27T08:51:19.000Z,2.9
2023-04-27T08:52:35.000Z,3
2023-04-27T08:53:51.000Z,3.1
2023-04-27T08:56:23.000Z,2.8
2023-04-27T08:57:38.000Z,2.8
2023-04-27T08:58:54.000Z,2.8
2023-04-27T09:00:11.000Z,2.8
2023-04-27T09:01:27.000Z,3
2023-04-27T09:02:43.000Z,2.7
2023-04-27T09:03:59.000Z,2.6
2023-04-27T09:05:15.000Z,3
2023-04-27T09:06:30.000Z,2.7
2023-04-27T09:07:45.000Z,2.9
2023-04-27T09:09:01.000Z,3
2023-04-27T09:10:16.000Z,3.2
2023-04-27T09:11:32.000Z,4.3
2023-04-27T09:12:48.000Z,3.4
2023-04-27T09:14:04.000Z,3.3
2023-04-27T09:15:20.000Z,3.6
2023-04-27T09:16:36.000Z,2.9
2023-04-27T09:17:52.000Z,3.9
2023-04-27T09:19:09.000Z,5.4
2023-04-27T09:20:25.000Z,4.3
2023-04-27T09:21:41.000Z,3.5
2023-04-27T09:22:57.000Z,3.1
2023-04-27T09:24:13.000Z,3.6
2023-04-27T09:25:29.000Z,3.2
2023-04-27T09:26:44.000Z,2.9
2023-04-27T09:28:01.000Z,3.3
2023-04-27T09:29:17.000Z,3.7
2023-04-27T09:30:33.000Z,4.1
2023-04-27T09:31:49.000Z,3.2
2023-04-27T09:33:05.000Z,3.2
2023-04-27T09:34:21.000Z,3.3
2023-04-27T09:35:37.000Z,2.7
2023-04-27T09:36:52.000Z,2.7
2023-04-27T09:38:08.000Z,2.8
2023-04-27T09:39:23.000Z,2.6
2023-04-27T09:40:38.000Z,3
2023-04-27T09:41:54.000Z,2.5
2023-04-27T09:43:10.000Z,2.7
2023-04-27T09:44:26.000Z,2.7
2023-04-27T09:45:42.000Z,2.3
2023-04-27T09:46:59.000Z,2.5
2023-04-27T09:49:31.000Z,2.7
2023-04-27T09:50:47.000Z,2.3
2023-04-27T09:52:03.000Z,2.4
2023-04-27T09:53:19.000Z,2.1
2023-04-27T09:54:35.000Z,2.2
2023-04-27T09:55:52.000Z,2.2
2023-04-27T09:57:07.000Z,2.6
2023-04-27T09:58:23.000Z,2.2
2023-04-27T09:59:39.000Z,2.5
2023-04-27T10:00:55.000Z,2.4
2023-04-27T10:02:11.000Z,2.4
2023-04-27T10:04:43.000Z,2.5
2023-04-27T10:05:59.000Z,2.7
2023-04-27T10:07:14.000Z,2.2
2023-04-27T10:08:30.000Z,2.4
2023-04-27T10:09:46.000Z,2.5
2023-04-27T10:11:02.000Z,2.5
2023-04-27T10:12:18.000Z,2.3
2023-04-27T10:13:34.000Z,2.3
2023-04-27T10:14:51.000Z,2.2
2023-04-27T10:16:07.000Z,2.4
2023-04-27T10:17:23.000Z,2.6
2023-04-27T10:19:55.000Z,2.7
2023-04-27T10:21:11.000Z,2.7
2023-04-27T10:22:27.000Z,2.6
2023-04-27T10:23:42.000Z,2.2
2023-04-27T10:24:59.000Z,2.3
2023-04-27T10:27:31.000Z,2.5
2023-04-27T10:28:46.000Z,2.4
2023-04-27T10:30:01.000Z,2.6
2023-04-27T10:31:17.000Z,2.2
2023-04-27T10:32:32.000Z,2.5
2023-04-27T10:33:49.000Z,2.5
2023-04-27T10:35:05.000Z,3.1
2023-04-27T10:36:21.000Z,3.1
2023-04-27T10:37:37.000Z,2.5
2023-04-27T10:38:53.000Z,2.6
2023-04-27T10:40:09.000Z,2.6
2023-04-27T10:42:42.000Z,2.7
2023-04-27T10:43:58.000Z,2.6
2023-04-27T10:45:14.000Z,2.2
2023-04-27T10:46:30.000Z,3
2023-04-27T10:47:46.000Z,2.3
2023-04-27T10:49:01.000Z,2.2
2023-04-27T10:50:17.000Z,2.6
2023-04-27T10:51:33.000Z,2.7
2023-04-27T10:52:50.000Z,2.2
2023-04-27T10:54:06.000Z,2.3
2023-04-27T10:55:22.000Z,2.5
2023-04-27T10:56:37.000Z,2.3
2023-04-27T10:57:52.000Z,2.5
2023-04-27T10:59:07.000Z,2.3
2023-04-27T11:00:22.000Z,2.3
2023-04-27T11:01:39.000Z,2.1
2023-04-27T11:02:55.000Z,2.6
2023-04-27T11:04:11.000Z,2.3
2023-04-27T11:05:27.000Z,2.3
2023-04-27T11:06:43.000Z,2.3
2023-04-27T11:07:59.000Z,2.2
2023-04-27T11:09:15.000Z,2.4
2023-04-27T11:10:32.000Z,2.5
2023-04-27T11:13:04.000Z,2.7
2023-04-27T11:14:20.000Z,2.1
2023-04-27T11:15:36.000Z,2.2
2023-04-27T11:16:51.714Z,2
2023-04-27T11:18:07.000Z,2.1
2023-04-27T11:19:23.000Z,1.9
2023-04-27T11:20:40.000Z,2.2
2023-04-27T11:21:56.000Z,2.1
2023-04-27T11:23:12.000Z,2.5
2023-04-27T11:24:28.000Z,2.5
2023-04-27T11:25:44.000Z,2.4
2023-04-27T11:26:59.000Z,2.6
2023-04-27T11:28:14.000Z,2.4
2023-04-27T11:29:30.000Z,2.7
2023-04-27T11:30:45.000Z,2.9
2023-04-27T11:32:01.000Z,2.8
2023-04-27T11:33:17.000Z,2.9
2023-04-27T11:34:33.000Z,3.2
2023-04-27T11:35:49.000Z,2.6
2023-04-27T11:37:05.000Z,2.6
2023-04-27T11:38:22.000Z,2.5
2023-04-27T11:39:38.000Z,2.7
2023-04-27T11:40:54.000Z,2.9
2023-04-27T11:42:10.000Z,2.5
2023-04-27T11:43:26.000Z,2.7
2023-04-27T11:44:42.000Z,2.8
2023-04-27T11:45:58.000Z,3
2023-04-27T11:47:13.000Z,2.8
2023-04-27T11:48:30.000Z,2.9
2023-04-27T11:49:46.000Z,3
2023-04-27T11:51:02.000Z,2.5
2023-04-27T11:52:18.000Z,2.7
2023-04-27T11:53:34.000Z,3.2
2023-04-27T11:54:50.000Z,2.5
2023-04-27T11:56:05.000Z,2.5
2023-04-27T11:58:37.000Z,2.9
2023-04-27T11:59:53.000Z,3.5
2023-04-27T12:01:09.000Z,2.7
2023-04-27T12:02:25.000Z,2.6
2023-04-27T12:03:40.000Z,2.4
2023-04-27T12:04:55.000Z,2
2023-04-27T12:06:12.000Z,2.4
2023-04-27T12:07:28.000Z,2.4
2023-04-27T12:08:44.000Z,2.6
2023-04-27T12:10:00.000Z,2.1
2023-04-27T12:11:16.000Z,2.1
2023-04-27T12:12:32.000Z,2.5
2023-04-27T12:13:48.000Z,2.7
2023-04-27T12:15:04.000Z,2.6
2023-04-27T12:16:21.000Z,2.6
2023-04-27T12:17:37.000Z,2.3
2023-04-27T12:18:53.000Z,2.6
2023-04-27T12:20:09.000Z,2.7
2023-04-27T12:22:40.000Z,2.7
2023-04-27T12:23:56.000Z,2.5
2023-04-27T12:25:13.000Z,2.8
2023-04-27T12:26:29.000Z,2.7
2023-04-27T12:27:45.000Z,2.3
2023-04-27T12:29:01.000Z,2.6
2023-04-27T12:30:17.000Z,3.1
2023-04-27T12:31:32.000Z,2.7
2023-04-27T12:32:47.000Z,2.7
2023-04-27T12:34:03.000Z,2.7
2023-04-27T12:35:18.000Z,2.7
2023-04-27T12:36:34.000Z,2.7
2023-04-27T12:37:50.000Z,2.7
2023-04-27T12:39:06.000Z,3
2023-04-27T12:40:22.000Z,3.1
2023-04-27T12:41:38.000Z,2.9
2023-04-27T12:44:11.000Z,3.2
2023-04-27T12:45:27.000Z,3.4
2023-04-27T12:46:43.000Z,2.8
2023-04-27T12:47:59.000Z,2.9
2023-04-27T12:49:15.000Z,2.9
2023-04-27T12:50:31.000Z,2.7
2023-04-27T12:51:46.000Z,3.1
2023-04-27T12:53:03.000Z,2.9
2023-04-27T12:54:19.000Z,2.7
2023-04-27T12:55:35.000Z,2.9
2023-04-27T12:56:51.000Z,2.6
2023-04-27T12:58:07.000Z,2.7
2023-04-27T12:59:23.000Z,3
2023-04-27T13:00:39.000Z,2.8
2023-04-27T13:01:54.000Z,2.8
2023-04-27T13:03:10.000Z,2.7
2023-04-27T13:04:26.000Z,2.9
2023-04-27T13:05:41.000Z,2.7
2023-04-27T13:06:56.000Z,2.8
2023-04-27T13:08:12.000Z,2.7
2023-04-27T13:09:28.000Z,2.7
2023-04-27T13:10:44.000Z,2.6
2023-04-27T13:12:01.000Z,2.9
2023-04-27T13:13:17.000Z,3
2023-04-27T13:14:33.000Z,3.2
2023-04-27T13:15:49.000Z,2.4
2023-04-27T13:17:05.000Z,2.6
2023-04-27T13:18:21.000Z,2.5
2023-04-27T13:19:37.000Z,2.7
2023-04-27T13:22:10.000Z,2.5
2023-04-27T13:23:25.000Z,2.4
2023-04-27T13:24:41.000Z,2.6
2023-04-27T13:25:57.000Z,2.2
2023-04-27T13:27:13.000Z,2.3
2023-04-27T13:28:29.000Z,2.4
2023-04-27T13:29:45.000Z,2.3
2023-04-27T13:31:02.000Z,2
2023-04-27T13:32:18.000Z,2.2
2023-04-27T13:33:33.000Z,2.1
2023-04-27T13:34:48.000Z,2.2
2023-04-27T13:36:03.000Z,2.1
2023-04-27T13:37:18.000Z,2.5
2023-04-27T13:38:34.000Z,2.3
2023-04-27T13:39:51.000Z,2.4
2023-04-27T13:41:07.000Z,2
2023-04-27T13:42:23.000Z,1.7
2023-04-27T13:43:39.000Z,2.1
2023-04-27T13:44:55.000Z,2
2023-04-27T13:46:11.000Z,1.7
2023-04-27T13:47:27.000Z,1.9
2023-04-27T13:48:44.000Z,2
2023-04-27T13:50:00.000Z,2
2023-04-27T13:51:16.000Z,1.5
2023-04-27T13:52:32.000Z,1.5
2023-04-27T13:53:47.000Z,1.5
2023-04-27T13:55:03.000Z,1.5
2023-04-27T13:56:19.000Z,1.7
2023-04-27T13:57:35.000Z,1.7
2023-04-27T13:58:52.000Z,1.9
2023-04-27T14:00:08.000Z,1.7
2023-04-27T14:01:24.000Z,1.6
2023-04-27T14:02:39.000Z,1.8
2023-04-27T14:03:54.000Z,1.9
2023-04-27T14:05:09.000Z,1.9
2023-04-27T14:06:24.000Z,1.5
2023-04-27T14:07:41.000Z,1.6
2023-04-27T14:08:57.000Z,1.7
2023-04-27T14:10:13.000Z,1.9
2023-04-27T14:11:29.000Z,2
2023-04-27T14:12:45.000Z,2.1
2023-04-27T14:14:01.000Z,2
2023-04-27T14:15:17.000Z,1.7
2023-04-27T14:16:34.000Z,1.8
2023-04-27T14:17:50.000Z,2
2023-04-27T14:19:06.000Z,1.9
2023-04-27T14:20:22.000Z,1.7
2023-04-27T14:21:38.000Z,1.9
2023-04-27T14:22:53.000Z,2
2023-04-27T14:24:09.000Z,2.1
2023-04-27T14:25:25.000Z,2
2023-04-27T14:26:42.000Z,1.6
2023-04-27T14:27:58.000Z,1.7
2023-04-27T14:29:14.000Z,1.7
2023-04-27T14:30:30.000Z,1.7
2023-04-27T14:31:45.000Z,1.8
2023-04-27T14:33:00.000Z,1.7
2023-04-27T14:34:16.000Z,2
2023-04-27T14:35:32.000Z,1.5
2023-04-27T14:36:47.000Z,1.8
2023-04-27T14:38:03.000Z,1.8
2023-04-27T14:39:19.000Z,2.5
2023-04-27T14:40:35.000Z,2.2
2023-04-27T14:41:51.000Z,1.8
2023-04-27T14:43:07.000Z,1.6
2023-04-27T14:44:24.000Z,2.4
2023-04-27T14:45:40.000Z,1.7
2023-04-27T14:46:55.000Z,1.8
2023-04-27T14:48:11.000Z,1.5
2023-04-27T14:49:27.000Z,1.6
2023-04-27T14:50:43.000Z,1.5
2023-04-27T14:51:59.000Z,1.5
2023-04-27T14:53:15.000Z,2
2023-04-27T14:54:32.000Z,2
2023-04-27T14:55:48.000Z,2.3
2023-04-27T14:57:04.000Z,1.7
2023-04-27T14:58:20.000Z,2.2
2023-04-27T14:59:36.000Z,1.8
2023-04-27T15:00:52.000Z,1.7
2023-04-27T15:02:07.000Z,1.8
2023-04-27T15:03:23.000Z,2.1
2023-04-27T15:04:38.232Z,1.8
2023-04-27T15:05:53.000Z,1.7
2023-04-27T15:07:09.000Z,1.7
2023-04-27T15:08:25.000Z,1.8
2023-04-27T15:09:41.000Z,2
2023-04-27T15:10:57.000Z,1.9
2023-04-27T15:12:14.000Z,2.1
2023-04-27T15:13:30.000Z,1.9
2023-04-27T15:14:46.000Z,1.7
2023-04-27T15:16:02.000Z,2.2
2023-04-27T15:17:18.000Z,2.6
2023-04-27T15:18:34.000Z,2.1
2023-04-27T15:19:50.000Z,1.9
2023-04-27T15:21:06.000Z,1.8
2023-04-27T15:22:22.000Z,2
2023-04-27T15:23:38.000Z,1.9
2023-04-27T15:24:54.000Z,1.8
2023-04-27T15:26:10.000Z,2.6
2023-04-27T15:27:26.000Z,1.9
2023-04-27T15:28:41.000Z,2.1
2023-04-27T15:29:57.000Z,2
2023-04-27T15:31:13.000Z,1.9
2023-04-27T15:32:28.000Z,2.4
2023-04-27T15:33:45.000Z,2.3
2023-04-27T15:35:01.000Z,2.5
2023-04-27T15:36:17.000Z,1.8
2023-04-27T15:37:33.000Z,2.1
2023-04-27T15:38:49.000Z,1.7
2023-04-27T15:40:06.000Z,2.3
2023-04-27T15:41:22.000Z,2
2023-04-27T15:42:38.000Z,2.3
2023-04-27T15:43:54.000Z,2.1
2023-04-27T15:46:26.000Z,2.1
2023-04-27T15:47:42.000Z,2.2
2023-04-27T15:48:57.000Z,2.4
2023-04-27T15:50:14.000Z,2.2
2023-04-27T15:51:30.000Z,2.1
2023-04-27T15:52:46.000Z,1.8
2023-04-27T15:54:02.000Z,1.8
2023-04-27T15:55:18.000Z,2.2
2023-04-27T15:56:34.000Z,1.9
2023-04-27T15:57:50.000Z,2.1
2023-04-27T15:59:06.000Z,2.1
2023-04-27T16:00:21.000Z,2.3
2023-04-27T16:01:37.000Z,1.9
2023-04-27T16:02:52.000Z,2.2
2023-04-27T16:04:07.000Z,2.1
2023-04-27T16:05:23.000Z,1.8
2023-04-27T16:06:39.000Z,1.9
2023-04-27T16:07:56.000Z,1.9
2023-04-27T16:09:12.000Z,2.2
2023-04-27T16:10:28.000Z,2.1
2023-04-27T16:11:44.000Z,1.9
2023-04-27T16:13:00.000Z,1.9
2023-04-27T16:14:16.000Z,1.7
2023-04-27T16:15:32.000Z,2
2023-04-27T16:16:48.000Z,2
2023-04-27T16:18:05.000Z,2
2023-04-27T16:19:21.000Z,2.2
2023-04-27T16:20:36.000Z,1.8
2023-04-27T16:21:52.000Z,1.8
2023-04-27T16:23:08.000Z,2.1
2023-04-27T16:24:24.000Z,1.9
2023-04-27T16:25:40.000Z,2.3
2023-04-27T16:26:57.000Z,1.7
2023-04-27T16:28:13.000Z,2
2023-04-27T16:30:44.000Z,2.1
2023-04-27T16:32:00.000Z,2.1
2023-04-27T16:33:15.000Z,2
2023-04-27T16:34:30.000Z,2.2
2023-04-27T16:35:46.000Z,2.2
2023-04-27T16:37:01.000Z,2
2023-04-27T16:38:17.000Z,2
2023-04-27T16:39:33.000Z,1.9
2023-04-27T16:40:49.000Z,2.1
2023-04-27T16:42:05.000Z,1.9
2023-04-27T16:43:21.000Z,2.3
2023-04-27T16:44:37.000Z,1.8
2023-04-27T16:47:10.000Z,1.9
2023-04-27T16:48:26.000Z,2
2023-04-27T16:49:42.000Z,1.9
2023-04-27T16:50:58.000Z,2
2023-04-27T16:52:14.000Z,2
2023-04-27T16:54:46.000Z,1.9
2023-04-27T16:56:01.000Z,1.4
2023-04-27T16:57:17.000Z,1.7
2023-04-27T16:58:32.000Z,1.7
2023-04-27T16:59:48.000Z,1.7
2023-04-27T17:01:04.000Z,1.6
2023-04-27T17:02:20.000Z,2.1
2023-04-27T17:03:37.000Z,1.7
2023-04-27T17:04:53.000Z,1.9
2023-04-27T17:06:09.000Z,1.9
2023-04-27T17:07:25.000Z,1.8
2023-04-27T17:08:41.000Z,1.6
2023-04-27T17:09:56.000Z,2
2023-04-27T17:11:11.000Z,2.1
2023-04-27T17:12:27.000Z,1.7
2023-04-27T17:13:44.000Z,1.8
2023-04-27T17:15:00.000Z,1.8
2023-04-27T17:16:16.000Z,1.7
2023-04-27T17:17:32.000Z,1.9
2023-04-27T17:18:48.000Z,2.1
2023-04-27T17:20:04.000Z,1.9
2023-04-27T17:21:20.000Z,1.7
2023-04-27T17:22:37.000Z,1.7
2023-04-27T17:23:53.000Z,1.8
2023-04-27T17:25:09.000Z,2
2023-04-27T17:26:25.000Z,1.7
2023-04-27T17:27:40.000Z,1.9
2023-04-27T17:28:56.000Z,1.9
2023-04-27T17:30:12.000Z,1.6
2023-04-27T17:31:28.000Z,1.8
2023-04-27T17:32:45.000Z,2
2023-04-27T17:34:01.000Z,2.2
2023-04-27T17:35:17.000Z,2
2023-04-27T17:36:32.000Z,1.7
2023-04-27T17:37:47.000Z,1.9
2023-04-27T17:40:19.000Z,1.7
2023-04-27T17:41:36.000Z,1.7
2023-04-27T17:42:52.000Z,1.7
2023-04-27T17:44:08.000Z,2.6
2023-04-27T17:45:23.000Z,2.5
2023-04-27T17:46:38.000Z,3.6
2023-04-27T17:47:54.000Z,3.1
2023-04-27T17:49:10.000Z,3.5
2023-04-27T17:50:27.000Z,2.8
2023-04-27T17:51:43.000Z,2.5
2023-04-27T17:52:59.000Z,3.1
2023-04-27T17:54:15.000Z,2.2
2023-04-27T17:55:31.000Z,1.8
2023-04-27T17:56:47.000Z,1.7
2023-04-27T17:58:03.000Z,1.7
2023-04-27T17:59:19.000Z,1.9
2023-04-27T18:00:36.000Z,1.9
2023-04-27T18:03:08.000Z,1.8
2023-04-27T18:04:23.000Z,2
2023-04-27T18:05:39.000Z,1.9
2023-04-27T18:06:55.000Z,1.9